Catalina Spirit — WDJ3865 — position and weather

sailwx.info

Track history (hours):
 
Tides and Currents Weather Stations Pressure Air Temp Water Temp Dewpoint Dewpoint Depression Visibility Wind Speed Wind Dir Waves Ship Positions

Catalina Spirit

Owner: Catalina Classic Cruises, Inc, San Diego, CA. More information available from US FCC via Universal Licensing System and Coast Guard Vessel Documentation Center.

Last reported at 2018-Apr-23 22:06 UTC. Time now 2018-Apr-24 23:04 UTC.
Position N 33°21' W 118°19'.

Length 23 m; draft 2.4 m.

Type: Passenger vessel. MMSI: 366889830.

Date/timePositionNaut miles runAvg speedWind from/ knotsBaromVisibWave heightAir tempDewpointWater temp
2018-Apr-23 22:06N 33°21' W 118°19'3 0.5
2018-Apr-23 16:05N 33°24' W 118°19'1412.6
2018-Apr-23 15:00N 33°37' W 118°16'611.4
2018-Apr-23 14:30N 33°43' W 118°16'3 5.6
2018-Apr-23 14:00N 33°46' W 118°15'0 0.5
2018-Apr-23 13:30N 33°46' W 118°15'  
2018-Apr-20 22:35N 33°46' W 118°15'0 1.4
2018-Apr-20 22:30N 33°46' W 118°15'3 6.2
2018-Apr-20 22:00N 33°43' W 118°15'2 0.5
2018-Apr-20 18:23N 33°41' W 118°17'3 8.1
2018-Apr-20 18:01N 33°44' W 118°17'0 0.1
2018-Apr-20 17:30N 33°44' W 118°17'0 0.1
2018-Apr-20 17:00N 33°44' W 118°17'2 3.5
2018-Apr-20 16:30N 33°46' W 118°15'1 0.0
2018-Apr-19 22:29N 33°46' W 118°15'2 4.2
2018-Apr-19 22:00N 33°44' W 118°17'1 1.4
2018-Apr-19 21:31N 33°44' W 118°17'1 2.6
2018-Apr-19 21:00N 33°45' W 118°16'1 0.1
2018-Apr-19 01:55N 33°46' W 118°15'2 5.5
2018-Apr-19 01:30N 33°44' W 118°17'1911.7
2018-Apr-18 23:52N 33°25' W 118°18'4 3.9
2018-Apr-18 22:48N 33°21' W 118°19'0 0.4
2018-Apr-18 22:19N 33°21' W 118°19'0 0.0
2018-Apr-18 21:56N 33°21' W 118°19'0 0.0
2018-Apr-18 19:58N 33°21' W 118°19'0 0.3
2018-Apr-18 19:30N 33°21' W 118°19'0 0.1
2018-Apr-18 18:57N 33°21' W 118°19'0 0.6
2018-Apr-18 18:30N 33°21' W 118°19'0 0.1
2018-Apr-18 16:34N 33°21' W 118°19'1710.5
2018-Apr-18 14:58N 33°38' W 118°16'612.0
2018-Apr-18 14:30N 33°43' W 118°16'3 5.8
2018-Apr-18 14:00N 33°46' W 118°15'0 0.3
2018-Apr-18 13:30N 33°46' W 118°15'0 0.0
2018-Apr-17 18:05N 33°46' W 118°15'0 0.0
2018-Apr-17 17:58N 33°46' W 118°15'0 0.0
2018-Apr-17 17:28N 33°46' W 118°15'0 0.0
2018-Apr-17 02:02N 33°46' W 118°15'0 0.0
2018-Apr-17 02:00N 33°46' W 118°15'1 2.4
2018-Apr-17 01:30N 33°45' W 118°16'4 8.4
2018-Apr-17 01:01N 33°41' W 118°15'5 0.5
2018-Apr-16 15:06N 33°36' W 118°16'113.6
2018-Apr-16 15:00N 33°38' W 118°16'611.8
2018-Apr-16 14:31N 33°43' W 118°16'1 2.5
2018-Apr-16 14:01N 33°45' W 118°17'  
Track history (hours):
 
Tides and Currents Weather Stations Pressure Air Temp Water Temp Dewpoint Dewpoint Depression Visibility Wind Speed Wind Dir Waves Ship Positions

Catalina Spirit

Owner: Catalina Classic Cruises, Inc, San Diego, CA. More information available from US FCC via Universal Licensing System and Coast Guard Vessel Documentation Center.

Last reported at 2018-Apr-23 22:06 UTC. Time now 2018-Apr-24 23:04 UTC.
Position N 33°21' W 118°19'.

Length 23 m; draft 2.4 m.

Type: Passenger vessel. MMSI: 366889830.

Date/timePositionNaut miles runAvg speedWind from/ knotsBaromVisibWave heightAir tempDewpointWater temp
2018-Apr-23 22:06N 33°21' W 118°19'3 0.5
2018-Apr-23 16:05N 33°24' W 118°19'1412.6
2018-Apr-23 15:00N 33°37' W 118°16'611.4
2018-Apr-23 14:30N 33°43' W 118°16'3 5.6
2018-Apr-23 14:00N 33°46' W 118°15'0 0.5
2018-Apr-23 13:30N 33°46' W 118°15'  
2018-Apr-20 22:35N 33°46' W 118°15'0 1.4
2018-Apr-20 22:30N 33°46' W 118°15'3 6.2
2018-Apr-20 22:00N 33°43' W 118°15'2 0.5
2018-Apr-20 18:23N 33°41' W 118°17'3 8.1
2018-Apr-20 18:01N 33°44' W 118°17'0 0.1
2018-Apr-20 17:30N 33°44' W 118°17'0 0.1
2018-Apr-20 17:00N 33°44' W 118°17'2 3.5
2018-Apr-20 16:30N 33°46' W 118°15'1 0.0
2018-Apr-19 22:29N 33°46' W 118°15'2 4.2
2018-Apr-19 22:00N 33°44' W 118°17'1 1.4
2018-Apr-19 21:31N 33°44' W 118°17'1 2.6
2018-Apr-19 21:00N 33°45' W 118°16'1 0.1
2018-Apr-19 01:55N 33°46' W 118°15'2 5.5
2018-Apr-19 01:30N 33°44' W 118°17'1911.7
2018-Apr-18 23:52N 33°25' W 118°18'4 3.9
2018-Apr-18 22:48N 33°21' W 118°19'0 0.4
2018-Apr-18 22:19N 33°21' W 118°19'0 0.0
2018-Apr-18 21:56N 33°21' W 118°19'0 0.0
2018-Apr-18 19:58N 33°21' W 118°19'0 0.3
2018-Apr-18 19:30N 33°21' W 118°19'0 0.1
2018-Apr-18 18:57N 33°21' W 118°19'0 0.6
2018-Apr-18 18:30N 33°21' W 118°19'0 0.1
2018-Apr-18 16:34N 33°21' W 118°19'1710.5
2018-Apr-18 14:58N 33°38' W 118°16'612.0
2018-Apr-18 14:30N 33°43' W 118°16'3 5.8
2018-Apr-18 14:00N 33°46' W 118°15'0 0.3
2018-Apr-18 13:30N 33°46' W 118°15'0 0.0
2018-Apr-17 18:05N 33°46' W 118°15'0 0.0
2018-Apr-17 17:58N 33°46' W 118°15'0 0.0
2018-Apr-17 17:28N 33°46' W 118°15'0 0.0
2018-Apr-17 02:02N 33°46' W 118°15'0 0.0
2018-Apr-17 02:00N 33°46' W 118°15'1 2.4
2018-Apr-17 01:30N 33°45' W 118°16'4 8.4
2018-Apr-17 01:01N 33°41' W 118°15'5 0.5
2018-Apr-16 15:06N 33°36' W 118°16'113.6
2018-Apr-16 15:00N 33°38' W 118°16'611.8
2018-Apr-16 14:31N 33°43' W 118°16'1 2.5
2018-Apr-16 14:01N 33°45' W 118°17'  

Dump ship's entire track history